Time;durP1;ratioP1;P1;durP2;ratioP2;P2;SDS_P1;SDS_P2;PMS_P1;PMS_P2;Temp;Humidity;BMP_temperature;BMP_pressure;BME280_temperature;BME280_humidity;BME280_pressure;Samples;Min_cycle;Max_cycle;Signal;HPM_P1;HPM_P2
2023/03/14 00:02:20;;;;;;;11.35;3.97;;;9.90;79.70;;;;;;5071016;28;20400;-68
2023/03/14 00:04:46;;;;;;;7.85;3.55;;;9.90;79.60;;;;;;5071457;28;20028;-67
2023/03/14 00:07:13;;;;;;;6.20;3.35;;;9.90;79.80;;;;;;5067249;28;20021;-67
2023/03/14 00:09:39;;;;;;;7.47;3.30;;;9.80;79.80;;;;;;5051081;28;20359;-67
2023/03/14 00:12:07;;;;;;;8.75;3.83;;;9.80;80.10;;;;;;5050864;28;20040;-67
2023/03/14 00:14:33;;;;;;;6.80;3.55;;;9.80;80.30;;;;;;5051133;28;20116;-67
2023/03/14 00:16:58;;;;;;;7.20;3.53;;;9.80;80.40;;;;;;5050743;28;20029;-68
2023/03/14 00:19:24;;;;;;;7.57;3.60;;;9.70;80.90;;;;;;5053015;28;20029;-68
2023/03/14 00:21:50;;;;;;;9.27;3.70;;;9.70;81.30;;;;;;5055281;28;20017;-67
2023/03/14 00:24:15;;;;;;;7.75;3.30;;;9.70;81.40;;;;;;5061099;28;20025;-67
2023/03/14 00:26:41;;;;;;;7.40;3.40;;;9.70;81.60;;;;;;5065330;28;20033;-67
2023/03/14 00:29:07;;;;;;;6.65;3.20;;;9.60;81.90;;;;;;5042604;28;20023;-67
2023/03/14 00:31:32;;;;;;;7.97;3.17;;;9.60;82.00;;;;;;5075328;28;20031;-67
2023/03/14 00:33:58;;;;;;;4.88;2.75;;;9.60;82.30;;;;;;5075285;28;20031;-67
2023/03/14 00:36:24;;;;;;;8.45;3.70;;;9.50;82.60;;;;;;5074898;28;20358;-67
2023/03/14 00:38:51;;;;;;;6.97;3.25;;;9.60;82.40;;;;;;5075158;28;20559;-67
2023/03/14 00:41:22;;;;;;;5.03;3.50;;;9.60;82.40;;;;;;5074671;28;20017;-67
2023/03/14 00:43:49;;;;;;;7.32;3.00;;;9.60;82.50;;;;;;5075150;28;20025;-67
2023/03/14 00:46:14;;;;;;;6.35;3.05;;;9.60;82.50;;;;;;5074603;28;20037;-67
2023/03/14 00:48:40;;;;;;;5.93;3.40;;;9.50;82.80;;;;;;5077498;28;20103;-67
2023/03/14 00:51:07;;;;;;;6.35;3.00;;;9.60;83.10;;;;;;5076150;28;20038;-67
2023/03/14 00:53:37;;;;;;;7.60;3.20;;;9.50;83.20;;;;;;5077550;28;20055;-67
2023/03/14 00:56:05;;;;;;;9.38;3.33;;;9.60;82.90;;;;;;5076613;28;20071;-67
2023/03/14 00:58:31;;;;;;;9.70;3.38;;;9.50;83.00;;;;;;5076556;28;20048;-67
2023/03/14 01:00:57;;;;;;;5.63;3.17;;;9.50;82.90;;;;;;5076754;28;20031;-67
2023/03/14 01:03:23;;;;;;;8.70;2.97;;;9.50;82.90;;;;;;5076540;28;20029;-67
2023/03/14 01:05:49;;;;;;;6.55;2.90;;;9.50;82.90;;;;;;5076100;28;20041;-67
2023/03/14 01:08:15;;;;;;;8.50;3.22;;;9.50;82.90;;;;;;5075015;28;20021;-67
2023/03/14 01:10:42;;;;;;;6.53;3.20;;;9.50;82.70;;;;;;5074935;28;20037;-68
2023/03/14 01:13:08;;;;;;;7.70;3.20;;;9.50;82.80;;;;;;5074225;28;20475;-68
2023/03/14 01:15:35;;;;;;;7.38;3.03;;;9.50;83.00;;;;;;5075045;28;20040;-68
2023/03/14 01:18:00;;;;;;;6.93;3.35;;;9.50;83.00;;;;;;5074748;28;20031;-68
2023/03/14 01:20:26;;;;;;;8.07;3.28;;;9.50;83.10;;;;;;5056391;28;20372;-68
2023/03/14 01:22:52;;;;;;;9.93;3.60;;;9.50;83.10;;;;;;5054607;28;20029;-68
2023/03/14 01:25:18;;;;;;;7.82;2.90;;;9.50;82.80;;;;;;5054444;28;20033;-67
2023/03/14 01:27:44;;;;;;;6.82;2.72;;;9.50;82.90;;;;;;5054499;28;20039;-68
2023/03/14 01:30:11;;;;;;;4.68;2.58;;;9.40;82.70;;;;;;5054121;28;20086;-68
2023/03/14 01:32:37;;;;;;;7.45;3.30;;;9.50;82.90;;;;;;5035825;28;20052;-67
2023/03/14 01:35:03;;;;;;;9.05;3.38;;;9.40;82.70;;;;;;5054329;28;20063;-67
2023/03/14 01:37:29;;;;;;;8.30;3.95;;;9.40;82.80;;;;;;5054181;28;20457;-66
2023/03/14 01:39:54;;;;;;;7.70;3.03;;;9.40;82.90;;;;;;5054418;28;20131;-67
2023/03/14 01:42:20;;;;;;;7.68;3.10;;;9.40;82.70;;;;;;5035552;28;20021;-66
2023/03/14 01:44:58;;;;;;;8.50;3.33;;;9.40;82.70;;;;;;5053756;28;20025;-66
2023/03/14 01:47:24;;;;;;;5.47;3.03;;;9.40;83.00;;;;;;5053583;28;20071;-68
2023/03/14 01:49:56;;;;;;;5.93;2.95;;;9.30;82.80;;;;;;5054118;28;20025;-68
2023/03/14 01:52:35;;;;;;;4.68;2.95;;;9.30;83.10;;;;;;5053162;28;20392;-67
2023/03/14 01:55:24;;;;;;;7.43;3.20;;;9.30;83.30;;;;;;5054068;28;20098;-68
2023/03/14 01:57:53;;;;;;;7.63;3.22;;;9.20;83.40;;;;;;5053995;28;20100;-68
2023/03/14 02:00:23;;;;;;;9.57;3.58;;;9.30;83.40;;;;;;5053175;28;20029;-69
2023/03/14 02:02:55;;;;;;;5.63;2.90;;;9.20;83.30;;;;;;5052123;28;20033;-68
2023/03/14 02:05:32;;;;;;;8.00;3.50;;;9.20;83.50;;;;;;5053230;28;20082;-68
2023/03/14 02:07:59;;;;;;;8.85;3.20;;;9.20;83.90;;;;;;5053648;28;20025;-67
2023/03/14 02:10:32;;;;;;;6.82;3.33;;;9.10;83.90;;;;;;5052915;28;20500;-68
2023/03/14 02:13:01;;;;;;;7.30;2.88;;;9.10;84.10;;;;;;5053635;28;20021;-68
2023/03/14 02:15:27;;;;;;;8.25;3.42;;;9.10;84.20;;;;;;5053200;28;20021;-67
2023/03/14 02:17:53;;;;;;;6.22;3.08;;;9.10;84.40;;;;;;5053418;28;20032;-68
2023/03/14 02:20:24;;;;;;;6.22;3.13;;;9.10;84.40;;;;;;5053294;28;20028;-68
2023/03/14 02:22:50;;;;;;;9.85;3.35;;;9.10;84.50;;;;;;5053224;28;20029;-67
2023/03/14 02:25:19;;;;;;;7.32;3.28;;;9.10;84.80;;;;;;5052955;28;20033;-68
2023/03/14 02:27:46;;;;;;;6.25;3.05;;;9.10;84.90;;;;;;5053322;28;20025;-68
2023/03/14 02:30:16;;;;;;;9.45;3.35;;;9.10;85.10;;;;;;5052668;28;20544;-68
2023/03/14 02:32:46;;;;;;;8.30;3.42;;;9.10;85.00;;;;;;5052969;28;20063;-67
2023/03/14 02:35:17;;;;;;;7.40;3.33;;;9.00;85.20;;;;;;5052764;28;20140;-70
2023/03/14 02:38:05;;;;;;;5.50;2.97;;;9.10;85.50;;;;;;5050570;28;20461;-67
2023/03/14 02:40:31;;;;;;;7.05;3.38;;;9.10;85.50;;;;;;5052692;28;20021;-67
2023/03/14 02:42:57;;;;;;;6.32;3.55;;;9.00;85.60;;;;;;5053174;28;20471;-67
2023/03/14 02:45:22;;;;;;;7.70;3.50;;;9.00;85.70;;;;;;5052735;28;20033;-68
2023/03/14 02:48:00;;;;;;;6.38;3.40;;;9.00;86.00;;;;;;5053292;28;20021;-67
2023/03/14 02:50:30;;;;;;;12.13;4.00;;;9.00;86.10;;;;;;5052611;28;20025;-68
2023/03/14 02:52:56;;;;;;;9.37;3.83;;;9.10;86.20;;;;;;5052828;28;20032;-67
2023/03/14 02:55:23;;;;;;;8.85;4.60;;;9.10;86.80;;;;;;5051962;28;20036;-67
2023/03/14 02:57:48;;;;;;;16.15;4.00;;;9.10;87.20;;;;;;5052767;28;20078;-67
2023/03/14 03:00:14;;;;;;;9.13;4.47;;;9.10;87.60;;;;;;5052350;28;20029;-68
2023/03/14 03:02:40;;;;;;;9.50;4.60;;;9.10;87.50;;;;;;5052537;28;20028;-67
2023/03/14 03:05:06;;;;;;;8.13;4.93;;;9.10;87.60;;;;;;5052925;28;20033;-67
2023/03/14 03:07:32;;;;;;;10.57;4.30;;;9.10;87.70;;;;;;5052239;28;20033;-67
2023/03/14 03:09:58;;;;;;;7.05;4.20;;;9.10;87.40;;;;;;5052635;28;20029;-67
2023/03/14 03:12:23;;;;;;;10.93;4.32;;;9.10;87.30;;;;;;5033822;28;20087;-67
2023/03/14 03:14:49;;;;;;;10.73;4.15;;;9.00;87.30;;;;;;5052443;28;20428;-67
2023/03/14 03:17:14;;;;;;;14.07;4.57;;;9.00;87.10;;;;;;5051665;28;20027;-68
2023/03/14 03:19:40;;;;;;;11.13;4.20;;;9.00;87.10;;;;;;5052445;28;20056;-67
2023/03/14 03:22:07;;;;;;;8.32;3.50;;;8.90;87.00;;;;;;5052644;28;20365;-67
2023/03/14 03:24:32;;;;;;;9.98;4.25;;;8.90;86.80;;;;;;5033886;28;20773;-67
2023/03/14 03:26:58;;;;;;;7.15;3.95;;;8.90;87.50;;;;;;5051952;28;20046;-68
2023/03/14 03:29:24;;;;;;;9.40;4.07;;;8.80;88.10;;;;;;5051733;28;20063;-68
2023/03/14 03:31:49;;;;;;;9.25;4.03;;;8.70;88.40;;;;;;5052515;28;20074;-67
2023/03/14 03:34:15;;;;;;;8.68;4.30;;;8.70;88.60;;;;;;5052364;28;20358;-67
2023/03/14 03:36:42;;;;;;;8.02;4.03;;;8.60;89.00;;;;;;5052288;28;20029;-67
2023/03/14 03:39:07;;;;;;;10.77;4.10;;;8.60;88.90;;;;;;5052331;28;20053;-68
2023/03/14 03:41:33;;;;;;;8.40;3.92;;;8.60;89.30;;;;;;5034096;28;20373;-69
2023/03/14 03:43:59;;;;;;;10.18;4.15;;;8.50;89.50;;;;;;5053419;28;20021;-67
2023/03/14 03:46:25;;;;;;;6.70;3.60;;;8.60;89.30;;;;;;5052363;28;20036;-68
2023/03/14 03:48:58;;;;;;;8.82;3.55;;;8.60;89.30;;;;;;5067533;28;20029;-68
2023/03/14 03:51:24;;;;;;;10.10;3.90;;;8.60;89.00;;;;;;5052281;28;20025;-68
2023/03/14 03:53:50;;;;;;;7.43;4.07;;;8.70;89.10;;;;;;5064844;28;20032;-67
2023/03/14 03:56:16;;;;;;;8.80;3.80;;;8.70;88.00;;;;;;5054873;28;20028;-69
2023/03/14 03:58:41;;;;;;;13.07;3.83;;;8.70;87.60;;;;;;5055765;28;20209;-68
2023/03/14 04:01:08;;;;;;;9.43;4.00;;;8.70;87.40;;;;;;5056111;28;20017;-67
2023/03/14 04:03:33;;;;;;;10.20;4.55;;;8.80;87.10;;;;;;5055287;28;20053;-67
2023/03/14 04:06:05;;;;;;;6.85;4.10;;;8.70;86.70;;;;;;5055980;28;20076;-67
2023/03/14 04:08:30;;;;;;;8.85;4.25;;;8.80;86.30;;;;;;5055516;28;20453;-67
2023/03/14 04:10:57;;;;;;;8.30;3.67;;;8.90;85.40;;;;;;5055970;28;20036;-67
2023/03/14 04:13:23;;;;;;;9.98;4.25;;;8.90;84.90;;;;;;5055023;28;20040;-67
2023/03/14 04:15:50;;;;;;;12.18;3.92;;;8.90;84.60;;;;;;5055806;28;20029;-67
2023/03/14 04:18:15;;;;;;;6.45;4.32;;;8.90;84.40;;;;;;5055196;28;20504;-67
2023/03/14 04:20:41;;;;;;;6.80;4.38;;;8.90;84.20;;;;;;5054944;28;20033;-67
2023/03/14 04:23:07;;;;;;;7.82;4.25;;;8.90;84.20;;;;;;5055691;28;20032;-67
2023/03/14 04:25:32;;;;;;;7.88;4.13;;;8.90;83.80;;;;;;5054993;28;20552;-67
2023/03/14 04:27:58;;;;;;;11.50;4.47;;;8.90;83.80;;;;;;5055437;28;20469;-67
2023/03/14 04:30:23;;;;;;;12.82;4.82;;;8.90;83.30;;;;;;5054768;28;20032;-67
2023/03/14 04:32:49;;;;;;;9.52;4.35;;;8.90;83.00;;;;;;5054992;28;20107;-67
2023/03/14 04:35:15;;;;;;;8.57;4.90;;;8.90;82.80;;;;;;5051204;28;20025;-67
2023/03/14 04:37:43;;;;;;;6.85;4.30;;;8.90;83.00;;;;;;5037298;28;20041;-67
2023/03/14 04:40:09;;;;;;;8.68;4.65;;;8.90;82.90;;;;;;5035570;28;20171;-67
2023/03/14 04:42:35;;;;;;;9.18;4.55;;;8.90;83.10;;;;;;5034620;28;20059;-67
2023/03/14 04:45:01;;;;;;;9.10;4.82;;;8.90;82.90;;;;;;5034011;28;20132;-67
2023/03/14 04:47:28;;;;;;;9.63;4.93;;;8.90;83.00;;;;;;5048018;28;20021;-67
2023/03/14 04:49:53;;;;;;;8.88;4.57;;;8.90;82.90;;;;;;5055098;28;20036;-67
2023/03/14 04:52:19;;;;;;;8.80;4.28;;;8.90;83.10;;;;;;5054509;28;20025;-69
2023/03/14 04:54:45;;;;;;;6.72;4.30;;;8.90;83.10;;;;;;5054988;28;20412;-67
2023/03/14 04:57:10;;;;;;;7.82;4.25;;;8.90;83.00;;;;;;5054977;28;20035;-68
2023/03/14 04:59:36;;;;;;;7.88;4.30;;;8.90;82.90;;;;;;5054277;28;20025;-68
2023/03/14 05:02:01;;;;;;;7.43;4.38;;;8.90;82.80;;;;;;5054937;28;20028;-68
2023/03/14 05:04:27;;;;;;;9.90;4.93;;;8.90;82.60;;;;;;5059294;28;20467;-67
2023/03/14 05:06:53;;;;;;;10.95;4.95;;;8.90;82.60;;;;;;5073608;28;20037;-67
2023/03/14 05:09:18;;;;;;;13.73;4.63;;;8.90;82.70;;;;;;5074842;28;20024;-66
2023/03/14 05:11:44;;;;;;;10.35;4.95;;;8.90;82.60;;;;;;5074418;28;20032;-66
2023/03/14 05:14:10;;;;;;;7.15;4.43;;;8.90;82.60;;;;;;5055146;28;20051;-67
2023/03/14 05:16:35;;;;;;;10.13;4.50;;;9.00;82.80;;;;;;5052183;28;20108;-65
2023/03/14 05:19:01;;;;;;;11.00;4.88;;;9.00;82.70;;;;;;5044486;28;20118;-65
2023/03/14 05:21:27;;;;;;;7.03;4.20;;;9.00;83.00;;;;;;5041681;28;20116;-66
2023/03/14 05:23:53;;;;;;;10.98;4.00;;;9.00;83.40;;;;;;5054093;28;20033;-66
2023/03/14 05:26:18;;;;;;;8.60;3.67;;;9.10;84.00;;;;;;5041829;28;20041;-66
2023/03/14 05:28:44;;;;;;;6.32;3.80;;;9.20;83.90;;;;;;5033689;28;20022;-66
2023/03/14 05:31:10;;;;;;;6.65;3.72;;;9.30;83.70;;;;;;5034268;28;20152;-67
2023/03/14 05:33:35;;;;;;;7.40;3.38;;;9.30;83.30;;;;;;5036079;28;20428;-67
2023/03/14 05:36:01;;;;;;;7.22;4.25;;;9.40;83.40;;;;;;5054380;28;20086;-66
2023/03/14 05:38:27;;;;;;;6.00;3.70;;;9.40;83.00;;;;;;5053719;28;20482;-66
2023/03/14 05:40:52;;;;;;;7.05;4.20;;;9.50;82.70;;;;;;5054409;28;20090;-66
2023/03/14 05:43:18;;;;;;;7.55;4.00;;;9.50;82.00;;;;;;5053990;28;20104;-66
2023/03/14 05:45:44;;;;;;;10.77;3.90;;;9.60;81.70;;;;;;5035343;28;20087;-67
2023/03/14 05:48:09;;;;;;;7.95;3.90;;;9.60;81.40;;;;;;5053883;28;20086;-66
2023/03/14 05:50:35;;;;;;;8.15;4.20;;;9.60;81.20;;;;;;5051750;28;20021;-66
2023/03/14 05:53:01;;;;;;;9.57;4.70;;;9.60;80.20;;;;;;5033600;28;20017;-65
2023/03/14 05:55:27;;;;;;;7.90;4.13;;;9.60;79.90;;;;;;5045556;28;20029;-65
2023/03/14 05:57:53;;;;;;;18.42;4.30;;;9.60;79.70;;;;;;5053431;28;20029;-65
2023/03/14 06:00:19;;;;;;;12.80;4.43;;;9.60;79.70;;;;;;5053630;28;20025;-65
2023/03/14 06:02:45;;;;;;;6.82;4.30;;;9.60;80.00;;;;;;5052943;28;20029;-65
2023/03/14 06:05:11;;;;;;;9.65;4.78;;;9.60;79.80;;;;;;5053454;28;20087;-66
2023/03/14 06:07:37;;;;;;;12.07;4.68;;;9.60;79.60;;;;;;5052710;28;20108;-66
2023/03/14 06:10:03;;;;;;;7.07;4.13;;;9.60;79.50;;;;;;5044756;28;20385;-65
2023/03/14 06:12:28;;;;;;;9.13;4.03;;;9.60;79.20;;;;;;5042285;28;20474;-65
2023/03/14 06:14:54;;;;;;;12.02;4.55;;;9.60;78.60;;;;;;5038752;28;20025;-67
2023/03/14 06:17:20;;;;;;;10.23;4.70;;;9.70;78.70;;;;;;5052796;28;20032;-65
2023/03/14 06:19:45;;;;;;;8.27;4.53;;;9.70;77.70;;;;;;5052873;28;20025;-66
2023/03/14 06:22:11;;;;;;;9.57;4.57;;;9.70;77.80;;;;;;5052470;28;20535;-66
2023/03/14 06:24:37;;;;;;;7.90;3.75;;;9.70;77.70;;;;;;5052796;28;20025;-66
2023/03/14 06:27:02;;;;;;;5.68;3.75;;;9.70;77.50;;;;;;5053180;28;20036;-66
2023/03/14 06:29:29;;;;;;;8.20;4.20;;;9.80;77.50;;;;;;5052495;28;20100;-67
2023/03/14 06:31:55;;;;;;;7.43;3.95;;;9.80;77.50;;;;;;5053122;28;20028;-66
2023/03/14 06:34:21;;;;;;;13.40;6.47;;;9.80;77.60;;;;;;5052638;28;20079;-66
2023/03/14 06:36:46;;;;;;;10.23;4.72;;;9.90;77.40;;;;;;5052437;28;20162;-66
2023/03/14 06:39:12;;;;;;;8.65;4.43;;;9.90;77.50;;;;;;5052643;28;20056;-66
2023/03/14 06:41:38;;;;;;;5.97;3.60;;;9.90;77.50;;;;;;5051978;28;20025;-66
2023/03/14 06:44:04;;;;;;;5.20;3.78;;;10.00;76.80;;;;;;5052537;28;20489;-66
2023/03/14 06:46:29;;;;;;;8.98;4.13;;;10.00;76.70;;;;;;5052156;28;20056;-66
2023/03/14 06:48:55;;;;;;;6.75;3.58;;;10.00;76.50;;;;;;5042005;28;20076;-66
2023/03/14 06:51:21;;;;;;;9.90;4.15;;;10.20;76.60;;;;;;5032853;28;20041;-66
2023/03/14 06:53:46;;;;;;;8.50;4.18;;;10.30;76.70;;;;;;5032631;28;20040;-66
2023/03/14 06:56:12;;;;;;;6.28;3.83;;;10.30;75.90;;;;;;5032786;28;20022;-66
2023/03/14 06:58:38;;;;;;;9.95;4.43;;;10.40;76.10;;;;;;5032483;28;20106;-66
2023/03/14 07:01:06;;;;;;;7.85;4.22;;;10.60;75.90;;;;;;5032654;28;20029;-66
2023/03/14 07:03:32;;;;;;;9.98;4.60;;;10.60;75.30;;;;;;5032368;28;20029;-66
2023/03/14 07:05:59;;;;;;;10.07;4.75;;;10.70;74.80;;;;;;5032322;28;20083;-65
2023/03/14 07:08:24;;;;;;;8.77;4.93;;;10.70;75.20;;;;;;5032574;28;20072;-66
2023/03/14 07:10:50;;;;;;;11.27;4.78;;;10.80;75.20;;;;;;5032232;28;20053;-66
2023/03/14 07:13:15;;;;;;;9.90;4.75;;;10.90;75.00;;;;;;5032587;28;20075;-66
2023/03/14 07:15:41;;;;;;;10.57;4.82;;;11.10;75.10;;;;;;5032199;28;20045;-65
2023/03/14 07:18:07;;;;;;;16.08;4.97;;;11.30;74.40;;;;;;5032575;28;20079;-66
2023/03/14 07:20:32;;;;;;;9.98;4.25;;;11.40;74.00;;;;;;5032164;28;20022;-65
2023/03/14 07:22:59;;;;;;;8.73;3.97;;;11.40;73.40;;;;;;5032457;28;20178;-65
2023/03/14 07:25:25;;;;;;;11.57;4.22;;;11.40;72.50;;;;;;5032366;28;20080;-66
2023/03/14 07:27:51;;;;;;;11.13;4.47;;;11.40;72.60;;;;;;5032005;28;20029;-65
2023/03/14 07:30:17;;;;;;;9.93;4.72;;;11.50;71.90;;;;;;5033609;28;20111;-67
2023/03/14 07:32:43;;;;;;;8.38;3.83;;;11.50;71.00;;;;;;5035778;28;20028;-65
2023/03/14 07:35:09;;;;;;;6.82;3.80;;;11.50;71.00;;;;;;5036279;28;20040;-65
2023/03/14 07:37:34;;;;;;;9.15;4.15;;;11.50;71.90;;;;;;5035626;28;20029;-66
2023/03/14 07:40:00;;;;;;;4.93;3.03;;;11.50;73.00;;;;;;5035986;28;20049;-66
2023/03/14 07:42:26;;;;;;;5.05;2.90;;;11.50;74.00;;;;;;5035839;28;20086;-67
2023/03/14 07:44:51;;;;;;;7.10;2.80;;;11.50;74.90;;;;;;5035612;28;20119;-66
2023/03/14 07:47:17;;;;;;;8.15;3.63;;;11.60;75.40;;;;;;5036177;28;20025;-66
2023/03/14 07:49:42;;;;;;;7.88;3.60;;;11.60;75.20;;;;;;5035480;28;20378;-67
2023/03/14 07:52:08;;;;;;;8.13;3.10;;;11.70;74.90;;;;;;5018403;28;20409;-67
2023/03/14 07:54:34;;;;;;;6.88;3.38;;;11.60;74.90;;;;;;5035404;28;20028;-66
2023/03/14 07:57:00;;;;;;;8.13;4.05;;;11.70;74.70;;;;;;5035644;28;20038;-67
2023/03/14 07:59:26;;;;;;;9.80;3.28;;;11.70;74.60;;;;;;5039149;28;20033;-67
2023/03/14 08:01:52;;;;;;;5.38;3.30;;;11.80;74.40;;;;;;5055124;28;20033;-66
2023/03/14 08:04:18;;;;;;;5.30;2.97;;;11.80;74.60;;;;;;5055579;28;20029;-67
2023/03/14 08:06:43;;;;;;;10.20;4.10;;;11.80;74.50;;;;;;5055437;28;20029;-67
2023/03/14 08:09:09;;;;;;;6.90;3.20;;;11.80;74.70;;;;;;5055924;28;20086;-67
2023/03/14 08:11:34;;;;;;;4.90;3.28;;;11.80;75.30;;;;;;5055419;28;20033;-66
2023/03/14 08:14:00;;;;;;;4.90;3.00;;;11.80;75.40;;;;;;5055734;28;20036;-66
2023/03/14 08:16:26;;;;;;;12.25;5.03;;;11.80;75.40;;;;;;5055680;28;20021;-66
2023/03/14 08:18:51;;;;;;;5.63;2.72;;;11.80;75.50;;;;;;5055359;28;20029;-67
2023/03/14 08:21:17;;;;;;;4.75;2.55;;;11.80;75.90;;;;;;5055627;28;20028;-67
2023/03/14 08:23:43;;;;;;;4.15;2.30;;;11.90;77.30;;;;;;5055066;28;20025;-66
2023/03/14 08:26:08;;;;;;;5.03;2.47;;;11.90;78.30;;;;;;5055488;28;20492;-66
2023/03/14 08:28:34;;;;;;;4.93;2.63;;;12.00;77.60;;;;;;5055099;28;20021;-67
2023/03/14 08:31:00;;;;;;;5.85;2.40;;;12.00;78.20;;;;;;5055146;28;20048;-66
2023/03/14 08:33:28;;;;;;;5.60;2.30;;;12.00;77.40;;;;;;5055262;28;20025;-66
2023/03/14 08:35:59;;;;;;;5.15;2.75;;;12.00;77.40;;;;;;5054747;28;20037;-66
2023/03/14 08:38:25;;;;;;;2.63;2.05;;;12.00;77.40;;;;;;5055343;28;20041;-66
2023/03/14 08:40:58;;;;;;;6.25;2.20;;;12.00;77.50;;;;;;5054736;28;20442;-66
2023/03/14 08:43:24;;;;;;;5.22;2.90;;;12.10;77.60;;;;;;5055495;28;20438;-66
2023/03/14 08:45:50;;;;;;;4.78;2.53;;;12.10;77.30;;;;;;5054875;28;20116;-66
2023/03/14 08:48:15;;;;;;;7.50;3.15;;;12.10;77.40;;;;;;5037148;28;20416;-66
2023/03/14 08:50:41;;;;;;;5.78;2.30;;;12.10;77.20;;;;;;5036779;28;20044;-66
2023/03/14 08:53:06;;;;;;;5.82;2.00;;;12.00;77.10;;;;;;5040189;28;20450;-66
2023/03/14 08:55:32;;;;;;;4.53;2.22;;;12.10;77.30;;;;;;5034960;28;20022;-67
2023/03/14 08:57:58;;;;;;;6.53;2.35;;;12.10;77.20;;;;;;5016863;28;20484;-66
2023/03/14 09:00:23;;;;;;;13.60;2.20;;;12.10;77.40;;;;;;5035088;28;20100;-67
2023/03/14 09:02:49;;;;;;;4.68;2.35;;;12.10;77.40;;;;;;5034218;28;20585;-67
2023/03/14 09:05:15;;;;;;;7.28;2.22;;;12.10;77.40;;;;;;5034846;28;20038;-66
2023/03/14 09:07:41;;;;;;;5.28;2.15;;;12.10;77.70;;;;;;5034525;28;20032;-66
2023/03/14 09:10:08;;;;;;;5.53;2.15;;;12.10;77.30;;;;;;5034918;28;20021;-66
2023/03/14 09:12:34;;;;;;;6.97;2.13;;;12.20;77.00;;;;;;5034719;28;20030;-66
2023/03/14 09:15:00;;;;;;;8.27;2.22;;;12.20;76.90;;;;;;5034319;28;20032;-67
2023/03/14 09:17:25;;;;;;;6.97;2.55;;;12.20;76.80;;;;;;5016915;28;20379;-66
2023/03/14 09:19:51;;;;;;;7.25;2.72;;;12.20;76.90;;;;;;5034132;28;20030;-66
2023/03/14 09:22:17;;;;;;;4.22;2.28;;;12.20;76.80;;;;;;5034539;28;20067;-66
2023/03/14 09:24:43;;;;;;;7.25;2.95;;;12.20;76.80;;;;;;5033806;28;20025;-66
2023/03/14 09:27:08;;;;;;;7.45;2.92;;;12.20;76.80;;;;;;5034198;28;20108;-66
2023/03/14 09:29:34;;;;;;;10.27;4.25;;;12.20;76.80;;;;;;5034150;28;20022;-66
2023/03/14 09:32:00;;;;;;;7.55;2.78;;;12.20;77.00;;;;;;5034028;28;20029;-67
2023/03/14 09:34:26;;;;;;;5.00;2.75;;;12.20;77.00;;;;;;5034484;28;20028;-66
2023/03/14 09:36:52;;;;;;;8.50;3.38;;;12.20;77.10;;;;;;5033665;28;20470;-65
2023/03/14 09:39:17;;;;;;;9.57;3.70;;;12.20;76.90;;;;;;5033926;28;20056;-66
2023/03/14 09:41:47;;;;;;;6.93;3.15;;;12.20;76.90;;;;;;5033843;28;20060;-66
2023/03/14 09:44:25;;;;;;;6.93;3.03;;;12.20;77.00;;;;;;5034028;28;20036;-67
2023/03/14 09:46:54;;;;;;;8.35;3.05;;;12.30;77.00;;;;;;5033164;28;20385;-66
2023/03/14 09:49:32;;;;;;;6.68;3.05;;;12.30;77.00;;;;;;5033655;28;20026;-66
2023/03/14 09:52:05;;;;;;;6.28;3.17;;;12.30;76.80;;;;;;5047037;28;20029;-67
2023/03/14 09:54:44;;;;;;;9.05;3.35;;;12.30;76.70;;;;;;5053003;28;20029;-66
2023/03/14 09:57:16;;;;;;;10.25;3.10;;;12.30;76.50;;;;;;5053763;28;20063;-66
2023/03/14 09:59:48;;;;;;;14.02;3.67;;;12.30;76.70;;;;;;5053308;28;20025;-66
2023/03/14 10:02:15;;;;;;;7.75;3.80;;;12.30;77.10;;;;;;5053986;28;20029;-67
2023/03/14 10:04:44;;;;;;;9.95;3.53;;;12.30;77.00;;;;;;5053398;28;20043;-68
2023/03/14 10:07:21;;;;;;;11.15;3.55;;;12.30;77.00;;;;;;5053465;28;20056;-67
2023/03/14 10:09:51;;;;;;;11.45;3.75;;;12.30;77.00;;;;;;5053275;28;20025;-67
2023/03/14 10:12:18;;;;;;;14.35;3.88;;;12.30;77.00;;;;;;5053373;28;20386;-67
2023/03/14 10:14:50;;;;;;;11.63;3.75;;;12.30;77.10;;;;;;5053101;28;20086;-67
2023/03/14 10:17:18;;;;;;;15.68;5.50;;;12.30;77.30;;;;;;5053599;28;20377;-67
2023/03/14 10:19:59;;;;;;;9.57;3.72;;;12.40;77.70;;;;;;5035265;28;20127;-67
2023/03/14 10:22:28;;;;;;;13.98;3.80;;;12.40;78.00;;;;;;5053671;28;20357;-67
2023/03/14 10:25:05;;;;;;;9.43;3.70;;;12.50;78.10;;;;;;5052591;28;20374;-66
2023/03/14 10:27:34;;;;;;;13.75;3.70;;;12.50;77.50;;;;;;5053125;28;20112;-67
2023/03/14 10:30:03;;;;;;;8.52;3.65;;;12.50;77.20;;;;;;5052920;28;20465;-66
2023/03/14 10:32:38;;;;;;;11.02;3.60;;;12.60;77.20;;;;;;5053288;28;20025;-66
2023/03/14 10:35:09;;;;;;;10.70;3.13;;;12.60;77.10;;;;;;5052777;28;20035;-66
2023/03/14 10:37:35;;;;;;;10.20;3.50;;;12.70;77.40;;;;;;5053175;28;20033;-66
2023/03/14 10:40:05;;;;;;;14.70;3.47;;;12.60;77.60;;;;;;5052565;28;20094;-66
2023/03/14 10:42:34;;;;;;;9.38;3.90;;;12.70;78.30;;;;;;5053065;28;20128;-67
2023/03/14 10:45:30;;;;;;;11.25;3.10;;;12.70;78.10;;;;;;5044832;28;20409;-66
2023/03/14 10:48:00;;;;;;;4.95;1.67;;;12.80;77.60;;;;;;5024223;28;20495;-66
2023/03/14 10:50:25;;;;;;;4.22;1.48;;;12.90;77.20;;;;;;5032862;28;20057;-66
2023/03/14 10:52:52;;;;;;;4.18;1.30;;;12.90;77.90;;;;;;5033009;28;20110;-67
2023/03/14 10:55:18;;;;;;;1.88;0.80;;;13.00;78.80;;;;;;5033080;28;20128;-68
2023/03/14 10:57:44;;;;;;;3.85;0.70;;;13.00;79.30;;;;;;5033073;28;20494;-66
2023/03/14 11:00:19;;;;;;;5.38;0.70;;;13.00;79.40;;;;;;5032687;28;20035;-67
2023/03/14 11:02:48;;;;;;;1.55;0.80;;;12.90;78.70;;;;;;5032664;28;20033;-67
2023/03/14 11:05:38;;;;;;;1.30;0.65;;;12.90;77.90;;;;;;5031740;28;20057;-66
2023/03/14 11:08:46;;;;;;;0.98;0.88;;;13.00;76.10;;;;;;5032452;28;20022;-66
2023/03/14 11:11:23;;;;;;;2.28;0.85;;;13.00;76.10;;;;;;5032626;28;20033;-67
2023/03/14 11:14:03;;;;;;;3.83;0.80;;;12.90;74.30;;;;;;5031966;28;20030;-67
2023/03/14 11:16:38;;;;;;;4.43;0.60;;;12.80;74.40;;;;;;5032815;28;20108;-66
2023/03/14 11:19:31;;;;;;;5.72;0.90;;;12.80;74.20;;;;;;5032228;28;20026;-66
2023/03/14 11:22:14;;;;;;;3.78;0.80;;;12.70;73.90;;;;;;5031901;28;20022;-66
2023/03/14 11:24:45;;;;;;;1.20;0.63;;;12.60;74.40;;;;;;5032646;28;20026;-66
2023/03/14 11:27:14;;;;;;;3.83;1.10;;;12.60;73.30;;;;;;5032163;28;20040;-66
2023/03/14 11:29:41;;;;;;;1.77;0.75;;;12.60;73.20;;;;;;5032310;28;20470;-67
2023/03/14 11:32:22;;;;;;;2.03;1.17;;;12.60;72.70;;;;;;5032216;28;20565;-67
2023/03/14 11:34:52;;;;;;;3.35;0.75;;;12.50;72.70;;;;;;5031976;28;20033;-67
2023/03/14 11:37:36;;;;;;;2.83;1.13;;;12.50;72.90;;;;;;5032192;28;20116;-67
2023/03/14 11:40:21;;;;;;;2.03;0.88;;;12.50;72.40;;;;;;5031770;28;20132;-66
2023/03/14 11:42:54;;;;;;;1.98;0.95;;;12.50;72.20;;;;;;5032492;28;20021;-66
2023/03/14 11:45:33;;;;;;;1.50;0.70;;;12.50;71.90;;;;;;5032184;28;20034;-66
2023/03/14 11:48:27;;;;;;;4.38;0.65;;;12.40;71.70;;;;;;5031740;28;20025;-67
2023/03/14 11:50:56;;;;;;;2.05;0.68;;;12.30;72.10;;;;;;5013969;28;20030;-67
2023/03/14 11:53:36;;;;;;;0.65;0.43;;;12.20;72.40;;;;;;5032339;28;20434;-66
2023/03/14 11:56:02;;;;;;;0.68;0.52;;;12.20;72.70;;;;;;5031978;28;20036;-65
2023/03/14 11:58:31;;;;;;;2.92;1.00;;;12.10;73.00;;;;;;5043247;28;20064;-66
2023/03/14 12:01:03;;;;;;;1.10;0.82;;;12.10;73.40;;;;;;5052056;28;20067;-67
2023/03/14 12:03:34;;;;;;;3.78;1.02;;;12.10;73.80;;;;;;5052073;28;20033;-67
2023/03/14 12:06:12;;;;;;;1.75;0.80;;;12.00;74.30;;;;;;5051289;28;20482;-67
2023/03/14 12:08:40;;;;;;;1.38;0.77;;;12.00;74.20;;;;;;5051680;28;20048;-65
2023/03/14 12:11:13;;;;;;;1.00;0.65;;;12.00;74.70;;;;;;5051385;28;20078;-66
2023/03/14 12:13:40;;;;;;;4.43;0.80;;;12.00;74.60;;;;;;5051883;28;20036;-66
2023/03/14 12:16:39;;;;;;;1.30;0.82;;;12.00;74.70;;;;;;5052307;28;20029;-67
2023/03/14 12:19:23;;;;;;;1.70;0.77;;;11.90;74.80;;;;;;4983589;28;20075;-67
2023/03/14 12:21:54;;;;;;;2.88;0.82;;;11.90;74.90;;;;;;5055228;28;20060;-67
2023/03/14 12:24:24;;;;;;;0.93;0.38;;;11.90;74.50;;;;;;5055658;28;20021;-67
2023/03/14 12:26:54;;;;;;;4.03;1.00;;;11.80;74.80;;;;;;5055378;28;20370;-66
2023/03/14 12:29:20;;;;;;;3.35;0.60;;;11.80;75.30;;;;;;5055754;28;20028;-67
2023/03/14 12:32:05;;;;;;;2.72;0.75;;;11.70;75.70;;;;;;5055315;28;20517;-67
2023/03/14 12:34:42;;;;;;;1.52;0.75;;;11.70;75.90;;;;;;5055210;28;20056;-67
2023/03/14 12:37:21;;;;;;;3.03;1.05;;;11.70;75.90;;;;;;5054794;28;20037;-66
2023/03/14 12:39:50;;;;;;;2.50;0.90;;;11.70;75.90;;;;;;5055134;28;20044;-67
2023/03/14 12:42:53;;;;;;;2.55;0.77;;;11.70;76.20;;;;;;5054434;28;20064;-66
2023/03/14 12:45:33;;;;;;;1.85;0.80;;;11.60;76.50;;;;;;5055004;28;20037;-67
2023/03/14 12:48:17;;;;;;;4.18;0.80;;;11.60;76.40;;;;;;5054496;28;20029;-67
2023/03/14 12:51:02;;;;;;;1.70;0.70;;;11.60;76.40;;;;;;5045952;28;20083;-66
2023/03/14 12:53:52;;;;;;;7.43;0.77;;;11.60;76.20;;;;;;5034982;28;20025;-66
2023/03/14 12:56:22;;;;;;;1.52;0.70;;;11.50;76.80;;;;;;5016827;28;20040;-67
2023/03/14 12:58:57;;;;;;;3.10;0.77;;;11.50;76.50;;;;;;5034685;28;20022;-66